sensor_id;sensor_type;location;lat;lon;timestamp;temperature;humidity
9919;DHT22;4998;51.024;13.828;2023-04-29T00:01:22;15.90;71.30
9919;DHT22;4998;51.024;13.828;2023-04-29T00:03:49;15.80;71.70
9919;DHT22;4998;51.024;13.828;2023-04-29T00:06:16;15.80;71.80
9919;DHT22;4998;51.024;13.828;2023-04-29T00:08:43;15.80;72.00
9919;DHT22;4998;51.024;13.828;2023-04-29T00:11:10;15.80;72.20
9919;DHT22;4998;51.024;13.828;2023-04-29T00:13:37;15.80;72.50
9919;DHT22;4998;51.024;13.828;2023-04-29T00:16:06;15.80;72.60
9919;DHT22;4998;51.024;13.828;2023-04-29T00:18:36;15.80;72.90
9919;DHT22;4998;51.024;13.828;2023-04-29T00:21:03;15.80;73.20
9919;DHT22;4998;51.024;13.828;2023-04-29T00:23:31;15.80;73.20
9919;DHT22;4998;51.024;13.828;2023-04-29T00:25:58;15.90;73.30
9919;DHT22;4998;51.024;13.828;2023-04-29T00:28:25;15.90;73.50
9919;DHT22;4998;51.024;13.828;2023-04-29T00:30:52;15.90;73.70
9919;DHT22;4998;51.024;13.828;2023-04-29T00:33:20;15.90;73.60
9919;DHT22;4998;51.024;13.828;2023-04-29T00:35:49;15.90;73.80
9919;DHT22;4998;51.024;13.828;2023-04-29T00:38:16;15.90;74.10
9919;DHT22;4998;51.024;13.828;2023-04-29T00:40:43;15.90;74.10
9919;DHT22;4998;51.024;13.828;2023-04-29T00:43:10;15.90;74.30
9919;DHT22;4998;51.024;13.828;2023-04-29T00:45:37;15.90;74.30
9919;DHT22;4998;51.024;13.828;2023-04-29T00:48:05;15.90;74.40
9919;DHT22;4998;51.024;13.828;2023-04-29T00:50:32;15.90;74.80
9919;DHT22;4998;51.024;13.828;2023-04-29T00:53:00;15.90;74.40
9919;DHT22;4998;51.024;13.828;2023-04-29T00:55:29;15.90;75.00
9919;DHT22;4998;51.024;13.828;2023-04-29T00:57:56;15.90;75.00
9919;DHT22;4998;51.024;13.828;2023-04-29T01:00:23;15.90;75.10
9919;DHT22;4998;51.024;13.828;2023-04-29T01:02:51;16.00;75.20
9919;DHT22;4998;51.024;13.828;2023-04-29T01:05:20;16.00;75.30
9919;DHT22;4998;51.024;13.828;2023-04-29T01:07:55;16.00;75.30
9919;DHT22;4998;51.024;13.828;2023-04-29T01:10:28;16.00;75.50
9919;DHT22;4998;51.024;13.828;2023-04-29T01:13:05;16.00;75.50
9919;DHT22;4998;51.024;13.828;2023-04-29T01:15:39;16.00;75.60
9919;DHT22;4998;51.024;13.828;2023-04-29T01:18:11;16.00;75.70
9919;DHT22;4998;51.024;13.828;2023-04-29T01:20:40;16.00;75.70
9919;DHT22;4998;51.024;13.828;2023-04-29T01:23:09;16.00;75.50
9919;DHT22;4998;51.024;13.828;2023-04-29T01:25:38;15.90;75.50
9919;DHT22;4998;51.024;13.828;2023-04-29T01:28:13;15.90;75.80
9919;DHT22;4998;51.024;13.828;2023-04-29T01:30:44;15.90;76.20
9919;DHT22;4998;51.024;13.828;2023-04-29T01:33:18;15.90;76.10
9919;DHT22;4998;51.024;13.828;2023-04-29T01:36:02;15.90;76.20
9919;DHT22;4998;51.024;13.828;2023-04-29T01:38:35;15.90;76.50
9919;DHT22;4998;51.024;13.828;2023-04-29T01:41:10;15.90;76.60
9919;DHT22;4998;51.024;13.828;2023-04-29T01:43:38;15.90;76.80
9919;DHT22;4998;51.024;13.828;2023-04-29T01:46:09;15.90;76.50
9919;DHT22;4998;51.024;13.828;2023-04-29T01:48:37;15.90;77.20
9919;DHT22;4998;51.024;13.828;2023-04-29T01:51:04;15.90;76.90
9919;DHT22;4998;51.024;13.828;2023-04-29T01:53:32;15.90;77.30
9919;DHT22;4998;51.024;13.828;2023-04-29T01:55:59;15.90;77.50
9919;DHT22;4998;51.024;13.828;2023-04-29T01:58:27;15.90;77.50
9919;DHT22;4998;51.024;13.828;2023-04-29T02:00:54;15.90;77.70
9919;DHT22;4998;51.024;13.828;2023-04-29T02:03:21;15.90;77.70
9919;DHT22;4998;51.024;13.828;2023-04-29T02:05:48;15.90;78.80
9919;DHT22;4998;51.024;13.828;2023-04-29T02:08:16;15.90;78.30
9919;DHT22;4998;51.024;13.828;2023-04-29T02:10:51;15.90;78.60
9919;DHT22;4998;51.024;13.828;2023-04-29T02:13:18;15.90;79.50
9919;DHT22;4998;51.024;13.828;2023-04-29T02:15:47;15.80;79.00
9919;DHT22;4998;51.024;13.828;2023-04-29T02:18:14;15.80;79.50
9919;DHT22;4998;51.024;13.828;2023-04-29T02:20:41;15.80;79.60
9919;DHT22;4998;51.024;13.828;2023-04-29T02:23:08;15.80;79.80
9919;DHT22;4998;51.024;13.828;2023-04-29T02:25:35;15.80;80.10
9919;DHT22;4998;51.024;13.828;2023-04-29T02:28:03;15.80;81.10
9919;DHT22;4998;51.024;13.828;2023-04-29T02:30:30;15.80;80.50
9919;DHT22;4998;51.024;13.828;2023-04-29T02:32:58;15.70;80.50
9919;DHT22;4998;51.024;13.828;2023-04-29T02:35:25;15.70;81.00
9919;DHT22;4998;51.024;13.828;2023-04-29T02:37:52;15.70;81.10
9919;DHT22;4998;51.024;13.828;2023-04-29T02:40:19;15.70;81.40
9919;DHT22;4998;51.024;13.828;2023-04-29T02:42:46;15.70;81.60
9919;DHT22;4998;51.024;13.828;2023-04-29T02:45:13;15.70;81.90
9919;DHT22;4998;51.024;13.828;2023-04-29T02:47:40;15.70;82.10
9919;DHT22;4998;51.024;13.828;2023-04-29T02:50:09;15.70;82.20
9919;DHT22;4998;51.024;13.828;2023-04-29T02:52:36;15.70;82.70
9919;DHT22;4998;51.024;13.828;2023-04-29T02:55:06;15.60;82.80
9919;DHT22;4998;51.024;13.828;2023-04-29T02:57:34;15.60;82.90
9919;DHT22;4998;51.024;13.828;2023-04-29T03:00:00;15.60;83.20
9919;DHT22;4998;51.024;13.828;2023-04-29T03:02:29;15.60;83.60
9919;DHT22;4998;51.024;13.828;2023-04-29T03:04:56;15.60;83.70
9919;DHT22;4998;51.024;13.828;2023-04-29T03:07:24;15.60;83.90
9919;DHT22;4998;51.024;13.828;2023-04-29T03:09:52;15.60;84.50
9919;DHT22;4998;51.024;13.828;2023-04-29T03:12:19;15.60;84.40
9919;DHT22;4998;51.024;13.828;2023-04-29T03:14:46;15.60;84.60
9919;DHT22;4998;51.024;13.828;2023-04-29T03:17:14;15.50;84.70
9919;DHT22;4998;51.024;13.828;2023-04-29T03:19:41;15.50;85.10
9919;DHT22;4998;51.024;13.828;2023-04-29T03:22:08;15.50;85.20
9919;DHT22;4998;51.024;13.828;2023-04-29T03:24:37;15.50;85.40
9919;DHT22;4998;51.024;13.828;2023-04-29T03:27:04;15.50;86.00
9919;DHT22;4998;51.024;13.828;2023-04-29T03:29:31;15.50;86.00
9919;DHT22;4998;51.024;13.828;2023-04-29T03:31:58;15.50;86.20
9919;DHT22;4998;51.024;13.828;2023-04-29T03:34:27;15.50;86.40
9919;DHT22;4998;51.024;13.828;2023-04-29T03:36:54;15.50;86.70
9919;DHT22;4998;51.024;13.828;2023-04-29T03:39:22;15.50;87.00
9919;DHT22;4998;51.024;13.828;2023-04-29T03:41:50;15.60;87.20
9919;DHT22;4998;51.024;13.828;2023-04-29T03:44:17;15.60;87.70
9919;DHT22;4998;51.024;13.828;2023-04-29T03:46:44;15.60;87.70
9919;DHT22;4998;51.024;13.828;2023-04-29T03:49:11;15.60;87.90
9919;DHT22;4998;51.024;13.828;2023-04-29T03:51:39;15.60;88.00
9919;DHT22;4998;51.024;13.828;2023-04-29T03:54:06;15.60;88.30
9919;DHT22;4998;51.024;13.828;2023-04-29T03:56:33;15.60;88.40
9919;DHT22;4998;51.024;13.828;2023-04-29T03:59:01;15.60;88.60
9919;DHT22;4998;51.024;13.828;2023-04-29T04:01:28;15.60;88.90
9919;DHT22;4998;51.024;13.828;2023-04-29T04:03:55;15.60;88.70
9919;DHT22;4998;51.024;13.828;2023-04-29T04:06:22;15.60;88.90
9919;DHT22;4998;51.024;13.828;2023-04-29T04:08:49;15.60;89.90
9919;DHT22;4998;51.024;13.828;2023-04-29T04:11:16;15.60;89.30
9919;DHT22;4998;51.024;13.828;2023-04-29T04:13:43;15.60;89.40
9919;DHT22;4998;51.024;13.828;2023-04-29T04:16:11;15.70;89.80
9919;DHT22;4998;51.024;13.828;2023-04-29T04:18:39;15.70;90.00
9919;DHT22;4998;51.024;13.828;2023-04-29T04:21:06;15.70;90.10
9919;DHT22;4998;51.024;13.828;2023-04-29T04:23:33;15.70;90.10
9919;DHT22;4998;51.024;13.828;2023-04-29T04:26:00;15.70;90.20
9919;DHT22;4998;51.024;13.828;2023-04-29T04:28:27;15.70;90.30
9919;DHT22;4998;51.024;13.828;2023-04-29T04:30:54;15.70;90.30
9919;DHT22;4998;51.024;13.828;2023-04-29T04:33:22;15.80;90.50
9919;DHT22;4998;51.024;13.828;2023-04-29T04:35:49;15.80;90.80
9919;DHT22;4998;51.024;13.828;2023-04-29T04:38:16;15.80;90.70
9919;DHT22;4998;51.024;13.828;2023-04-29T04:40:44;15.90;90.80
9919;DHT22;4998;51.024;13.828;2023-04-29T04:43:11;15.90;90.90
9919;DHT22;4998;51.024;13.828;2023-04-29T04:45:38;15.90;90.90
9919;DHT22;4998;51.024;13.828;2023-04-29T04:48:05;16.00;90.90
9919;DHT22;4998;51.024;13.828;2023-04-29T04:50:34;16.00;91.00
9919;DHT22;4998;51.024;13.828;2023-04-29T04:53:01;16.00;91.10
9919;DHT22;4998;51.024;13.828;2023-04-29T04:55:28;16.00;91.00
9919;DHT22;4998;51.024;13.828;2023-04-29T04:57:56;16.10;91.00
9919;DHT22;4998;51.024;13.828;2023-04-29T05:00:23;16.10;91.10
9919;DHT22;4998;51.024;13.828;2023-04-29T05:02:50;16.10;91.20
9919;DHT22;4998;51.024;13.828;2023-04-29T05:05:17;16.10;91.10
9919;DHT22;4998;51.024;13.828;2023-04-29T05:07:46;16.10;91.20
9919;DHT22;4998;51.024;13.828;2023-04-29T05:10:13;16.10;91.30
9919;DHT22;4998;51.024;13.828;2023-04-29T05:12:40;16.10;91.30
9919;DHT22;4998;51.024;13.828;2023-04-29T05:15:07;16.10;91.30
9919;DHT22;4998;51.024;13.828;2023-04-29T05:17:35;16.10;91.40
9919;DHT22;4998;51.024;13.828;2023-04-29T05:20:02;16.10;91.40
9919;DHT22;4998;51.024;13.828;2023-04-29T05:22:30;16.20;91.70
9919;DHT22;4998;51.024;13.828;2023-04-29T05:24:58;16.20;91.80
9919;DHT22;4998;51.024;13.828;2023-04-29T05:27:28;16.20;91.90
9919;DHT22;4998;51.024;13.828;2023-04-29T05:29:55;16.20;91.80
9919;DHT22;4998;51.024;13.828;2023-04-29T05:32:22;16.20;92.00
9919;DHT22;4998;51.024;13.828;2023-04-29T05:34:49;16.20;92.10
9919;DHT22;4998;51.024;13.828;2023-04-29T05:37:16;16.20;92.10
9919;DHT22;4998;51.024;13.828;2023-04-29T05:39:43;16.20;92.30
9919;DHT22;4998;51.024;13.828;2023-04-29T05:42:11;16.20;92.40
9919;DHT22;4998;51.024;13.828;2023-04-29T05:44:38;16.20;92.50
9919;DHT22;4998;51.024;13.828;2023-04-29T05:47:05;16.20;92.50
9919;DHT22;4998;51.024;13.828;2023-04-29T05:49:32;16.30;92.70
9919;DHT22;4998;51.024;13.828;2023-04-29T05:51:59;16.30;92.80
9919;DHT22;4998;51.024;13.828;2023-04-29T05:54:31;16.30;92.90
9919;DHT22;4998;51.024;13.828;2023-04-29T05:56:58;16.40;93.10
9919;DHT22;4998;51.024;13.828;2023-04-29T05:59:28;16.50;93.40
9919;DHT22;4998;51.024;13.828;2023-04-29T06:01:55;16.60;93.70
9919;DHT22;4998;51.024;13.828;2023-04-29T06:04:22;16.60;93.60
9919;DHT22;4998;51.024;13.828;2023-04-29T06:06:50;16.70;93.50
9919;DHT22;4998;51.024;13.828;2023-04-29T06:09:18;16.80;93.50
9919;DHT22;4998;51.024;13.828;2023-04-29T06:11:45;16.90;93.50
9919;DHT22;4998;51.024;13.828;2023-04-29T06:14:12;16.90;93.40
9919;DHT22;4998;51.024;13.828;2023-04-29T06:16:41;17.00;93.40
9919;DHT22;4998;51.024;13.828;2023-04-29T06:19:08;17.00;93.50
9919;DHT22;4998;51.024;13.828;2023-04-29T06:21:35;17.10;93.60
9919;DHT22;4998;51.024;13.828;2023-04-29T06:24:02;17.10;93.70
9919;DHT22;4998;51.024;13.828;2023-04-29T06:26:29;17.20;93.90
9919;DHT22;4998;51.024;13.828;2023-04-29T06:28:56;17.30;94.00
9919;DHT22;4998;51.024;13.828;2023-04-29T06:31:23;17.30;94.00
9919;DHT22;4998;51.024;13.828;2023-04-29T06:33:51;17.40;94.30
9919;DHT22;4998;51.024;13.828;2023-04-29T06:36:19;17.50;94.20
9919;DHT22;4998;51.024;13.828;2023-04-29T06:38:46;17.50;94.00
9919;DHT22;4998;51.024;13.828;2023-04-29T06:41:13;17.60;94.00
9919;DHT22;4998;51.024;13.828;2023-04-29T06:43:40;17.70;94.00
9919;DHT22;4998;51.024;13.828;2023-04-29T06:46:08;17.70;94.10
9919;DHT22;4998;51.024;13.828;2023-04-29T06:48:35;17.80;94.30
9919;DHT22;4998;51.024;13.828;2023-04-29T06:51:03;17.90;94.30
9919;DHT22;4998;51.024;13.828;2023-04-29T06:53:30;18.00;94.40
9919;DHT22;4998;51.024;13.828;2023-04-29T06:55:57;18.10;94.30
9919;DHT22;4998;51.024;13.828;2023-04-29T06:58:24;18.30;94.20
9919;DHT22;4998;51.024;13.828;2023-04-29T07:00:51;18.30;94.00
9919;DHT22;4998;51.024;13.828;2023-04-29T07:03:18;18.40;93.80
9919;DHT22;4998;51.024;13.828;2023-04-29T07:05:45;18.50;93.70
9919;DHT22;4998;51.024;13.828;2023-04-29T07:08:14;18.50;93.50
9919;DHT22;4998;51.024;13.828;2023-04-29T07:10:41;18.50;93.30
9919;DHT22;4998;51.024;13.828;2023-04-29T07:13:08;18.40;93.20
9919;DHT22;4998;51.024;13.828;2023-04-29T07:15:35;18.40;93.30
9919;DHT22;4998;51.024;13.828;2023-04-29T07:18:03;18.40;93.30
9919;DHT22;4998;51.024;13.828;2023-04-29T07:20:30;18.30;93.20
9919;DHT22;4998;51.024;13.828;2023-04-29T07:22:57;18.20;93.10
9919;DHT22;4998;51.024;13.828;2023-04-29T07:25:26;18.20;93.10
9919;DHT22;4998;51.024;13.828;2023-04-29T07:27:54;18.10;93.50
9919;DHT22;4998;51.024;13.828;2023-04-29T07:30:21;18.00;93.20
9919;DHT22;4998;51.024;13.828;2023-04-29T07:32:48;18.00;93.40
9919;DHT22;4998;51.024;13.828;2023-04-29T07:35:15;17.90;93.50
9919;DHT22;4998;51.024;13.828;2023-04-29T07:37:43;17.80;93.60
9919;DHT22;4998;51.024;13.828;2023-04-29T07:40:10;17.80;93.80
9919;DHT22;4998;51.024;13.828;2023-04-29T07:42:39;17.70;93.70
9919;DHT22;4998;51.024;13.828;2023-04-29T07:45:07;17.70;93.80
9919;DHT22;4998;51.024;13.828;2023-04-29T07:47:34;17.60;93.90
9919;DHT22;4998;51.024;13.828;2023-04-29T07:50:01;17.50;93.90
9919;DHT22;4998;51.024;13.828;2023-04-29T07:52:29;17.40;94.10
9919;DHT22;4998;51.024;13.828;2023-04-29T07:54:56;17.40;94.20
9919;DHT22;4998;51.024;13.828;2023-04-29T07:57:23;17.30;94.30
9919;DHT22;4998;51.024;13.828;2023-04-29T07:59:52;17.30;94.60
9919;DHT22;4998;51.024;13.828;2023-04-29T08:02:19;17.20;95.00
9919;DHT22;4998;51.024;13.828;2023-04-29T08:04:46;17.20;95.10
9919;DHT22;4998;51.024;13.828;2023-04-29T08:07:13;17.20;95.20
9919;DHT22;4998;51.024;13.828;2023-04-29T08:09:40;17.20;95.20
9919;DHT22;4998;51.024;13.828;2023-04-29T08:12:07;17.20;95.40
9919;DHT22;4998;51.024;13.828;2023-04-29T08:14:35;17.20;95.60
9919;DHT22;4998;51.024;13.828;2023-04-29T08:17:03;17.20;95.60
9919;DHT22;4998;51.024;13.828;2023-04-29T08:19:30;17.20;95.70
9919;DHT22;4998;51.024;13.828;2023-04-29T08:21:57;17.30;95.50
9919;DHT22;4998;51.024;13.828;2023-04-29T08:24:25;17.30;95.60
9919;DHT22;4998;51.024;13.828;2023-04-29T08:26:54;17.30;95.60
9919;DHT22;4998;51.024;13.828;2023-04-29T08:29:21;17.30;95.60
9919;DHT22;4998;51.024;13.828;2023-04-29T08:31:48;17.30;95.60
9919;DHT22;4998;51.024;13.828;2023-04-29T08:34:16;17.30;95.50
9919;DHT22;4998;51.024;13.828;2023-04-29T08:36:43;17.20;96.00
9919;DHT22;4998;51.024;13.828;2023-04-29T08:39:10;17.20;95.70
9919;DHT22;4998;51.024;13.828;2023-04-29T08:41:37;17.20;95.70
9919;DHT22;4998;51.024;13.828;2023-04-29T08:44:05;17.20;95.60
9919;DHT22;4998;51.024;13.828;2023-04-29T08:46:32;17.40;95.70
9919;DHT22;4998;51.024;13.828;2023-04-29T08:49:02;17.30;95.50
9919;DHT22;4998;51.024;13.828;2023-04-29T08:51:31;17.30;95.70
9919;DHT22;4998;51.024;13.828;2023-04-29T08:53:59;17.30;95.90
9919;DHT22;4998;51.024;13.828;2023-04-29T08:56:27;17.30;95.70
9919;DHT22;4998;51.024;13.828;2023-04-29T08:58:56;17.30;95.70
9919;DHT22;4998;51.024;13.828;2023-04-29T09:01:26;17.30;95.70
9919;DHT22;4998;51.024;13.828;2023-04-29T09:04:03;17.30;95.70
9919;DHT22;4998;51.024;13.828;2023-04-29T09:06:36;17.30;95.60
9919;DHT22;4998;51.024;13.828;2023-04-29T09:09:03;17.30;95.50
9919;DHT22;4998;51.024;13.828;2023-04-29T09:11:31;17.30;95.50
9919;DHT22;4998;51.024;13.828;2023-04-29T09:13:59;17.30;95.50
9919;DHT22;4998;51.024;13.828;2023-04-29T09:16:27;17.30;95.40
9919;DHT22;4998;51.024;13.828;2023-04-29T09:18:54;17.30;95.30
9919;DHT22;4998;51.024;13.828;2023-04-29T09:21:22;17.20;95.20
9919;DHT22;4998;51.024;13.828;2023-04-29T09:23:52;17.20;95.20
9919;DHT22;4998;51.024;13.828;2023-04-29T09:26:19;17.20;95.10
9919;DHT22;4998;51.024;13.828;2023-04-29T09:28:47;17.20;95.00
9919;DHT22;4998;51.024;13.828;2023-04-29T09:31:31;17.20;95.00
9919;DHT22;4998;51.024;13.828;2023-04-29T09:33:58;17.10;94.90
9919;DHT22;4998;51.024;13.828;2023-04-29T09:36:39;17.10;95.00
9919;DHT22;4998;51.024;13.828;2023-04-29T09:39:10;17.10;95.30
9919;DHT22;4998;51.024;13.828;2023-04-29T09:41:42;17.10;95.30
9919;DHT22;4998;51.024;13.828;2023-04-29T09:44:23;17.00;95.30
9919;DHT22;4998;51.024;13.828;2023-04-29T09:46:54;17.00;95.30
9919;DHT22;4998;51.024;13.828;2023-04-29T09:49:23;17.00;95.50
9919;DHT22;4998;51.024;13.828;2023-04-29T09:51:55;16.90;95.50
9919;DHT22;4998;51.024;13.828;2023-04-29T09:54:26;16.90;95.70
9919;DHT22;4998;51.024;13.828;2023-04-29T09:56:54;16.90;95.90
9919;DHT22;4998;51.024;13.828;2023-04-29T09:59:22;17.00;95.90
9919;DHT22;4998;51.024;13.828;2023-04-29T10:01:51;17.00;95.90
9919;DHT22;4998;51.024;13.828;2023-04-29T10:04:20;17.00;95.90
9919;DHT22;4998;51.024;13.828;2023-04-29T10:06:49;17.00;95.80
9919;DHT22;4998;51.024;13.828;2023-04-29T10:09:18;17.00;96.00
9919;DHT22;4998;51.024;13.828;2023-04-29T10:11:47;17.00;96.00
9919;DHT22;4998;51.024;13.828;2023-04-29T10:14:16;17.10;96.20
9919;DHT22;4998;51.024;13.828;2023-04-29T10:16:46;17.10;96.30
9919;DHT22;4998;51.024;13.828;2023-04-29T10:19:17;17.20;96.20
9919;DHT22;4998;51.024;13.828;2023-04-29T10:21:48;17.20;96.10
9919;DHT22;4998;51.024;13.828;2023-04-29T10:24:17;17.30;96.00
9919;DHT22;4998;51.024;13.828;2023-04-29T10:26:46;17.30;95.90
9919;DHT22;4998;51.024;13.828;2023-04-29T10:29:16;17.40;95.90
9919;DHT22;4998;51.024;13.828;2023-04-29T10:31:45;17.40;95.60
9919;DHT22;4998;51.024;13.828;2023-04-29T10:34:16;17.40;95.60
9919;DHT22;4998;51.024;13.828;2023-04-29T10:36:45;17.40;95.60
9919;DHT22;4998;51.024;13.828;2023-04-29T10:39:20;17.40;95.60
9919;DHT22;4998;51.024;13.828;2023-04-29T10:41:51;17.50;95.70
9919;DHT22;4998;51.024;13.828;2023-04-29T10:44:19;17.50;95.50
9919;DHT22;4998;51.024;13.828;2023-04-29T10:46:46;17.50;95.40
9919;DHT22;4998;51.024;13.828;2023-04-29T10:49:13;17.50;95.40
9919;DHT22;4998;51.024;13.828;2023-04-29T10:51:42;17.50;95.20
9919;DHT22;4998;51.024;13.828;2023-04-29T10:54:11;17.50;95.30
9919;DHT22;4998;51.024;13.828;2023-04-29T10:56:43;17.50;94.70
9919;DHT22;4998;51.024;13.828;2023-04-29T10:59:17;17.50;94.30
9919;DHT22;4998;51.024;13.828;2023-04-29T11:01:47;17.50;94.30
9919;DHT22;4998;51.024;13.828;2023-04-29T11:04:15;17.50;94.30
9919;DHT22;4998;51.024;13.828;2023-04-29T11:06:47;17.50;93.80
9919;DHT22;4998;51.024;13.828;2023-04-29T11:09:23;17.50;93.70
9919;DHT22;4998;51.024;13.828;2023-04-29T11:11:58;17.50;93.70
9919;DHT22;4998;51.024;13.828;2023-04-29T11:14:31;17.60;93.10
9919;DHT22;4998;51.024;13.828;2023-04-29T11:17:00;17.60;93.00
9919;DHT22;4998;51.024;13.828;2023-04-29T11:19:31;17.60;93.10
9919;DHT22;4998;51.024;13.828;2023-04-29T11:22:12;17.60;93.20
9919;DHT22;4998;51.024;13.828;2023-04-29T11:24:50;17.70;92.80
9919;DHT22;4998;51.024;13.828;2023-04-29T11:27:19;17.70;92.80
9919;DHT22;4998;51.024;13.828;2023-04-29T11:29:49;17.80;92.80
9919;DHT22;4998;51.024;13.828;2023-04-29T11:32:19;17.80;92.40
9919;DHT22;4998;51.024;13.828;2023-04-29T11:34:47;17.80;92.10
9919;DHT22;4998;51.024;13.828;2023-04-29T11:37:22;17.80;91.80
9919;DHT22;4998;51.024;13.828;2023-04-29T11:39:49;17.80;91.70
9919;DHT22;4998;51.024;13.828;2023-04-29T11:42:21;17.80;91.80
9919;DHT22;4998;51.024;13.828;2023-04-29T11:44:54;17.80;92.00
9919;DHT22;4998;51.024;13.828;2023-04-29T11:47:26;17.80;91.90
9919;DHT22;4998;51.024;13.828;2023-04-29T11:50:01;17.80;91.80
9919;DHT22;4998;51.024;13.828;2023-04-29T11:52:28;17.80;91.30
9919;DHT22;4998;51.024;13.828;2023-04-29T11:54:57;17.80;91.30
9919;DHT22;4998;51.024;13.828;2023-04-29T11:57:24;17.80;91.00
9919;DHT22;4998;51.024;13.828;2023-04-29T11:59:52;17.80;90.70
9919;DHT22;4998;51.024;13.828;2023-04-29T12:02:21;17.80;90.70
9919;DHT22;4998;51.024;13.828;2023-04-29T12:04:48;17.80;90.80
9919;DHT22;4998;51.024;13.828;2023-04-29T12:07:15;17.80;90.50
9919;DHT22;4998;51.024;13.828;2023-04-29T12:09:43;17.80;90.00
9919;DHT22;4998;51.024;13.828;2023-04-29T12:12:12;17.80;89.50
9919;DHT22;4998;51.024;13.828;2023-04-29T12:14:39;17.80;88.80
9919;DHT22;4998;51.024;13.828;2023-04-29T12:17:08;17.80;88.20
9919;DHT22;4998;51.024;13.828;2023-04-29T12:19:36;17.70;88.50
9919;DHT22;4998;51.024;13.828;2023-04-29T12:22:05;17.70;88.20
9919;DHT22;4998;51.024;13.828;2023-04-29T12:24:33;17.70;88.50
9919;DHT22;4998;51.024;13.828;2023-04-29T12:27:01;17.70;88.90
9919;DHT22;4998;51.024;13.828;2023-04-29T12:29:28;17.80;88.60
9919;DHT22;4998;51.024;13.828;2023-04-29T12:31:55;17.70;88.60
9919;DHT22;4998;51.024;13.828;2023-04-29T12:34:28;17.70;88.70
9919;DHT22;4998;51.024;13.828;2023-04-29T12:36:55;17.60;88.50
9919;DHT22;4998;51.024;13.828;2023-04-29T12:39:23;17.60;88.80
9919;DHT22;4998;51.024;13.828;2023-04-29T12:41:54;17.60;88.50
9919;DHT22;4998;51.024;13.828;2023-04-29T12:44:23;17.50;88.40
9919;DHT22;4998;51.024;13.828;2023-04-29T12:46:50;17.50;88.40
9919;DHT22;4998;51.024;13.828;2023-04-29T12:49:18;17.40;88.50
9919;DHT22;4998;51.024;13.828;2023-04-29T12:51:47;17.40;88.50
9919;DHT22;4998;51.024;13.828;2023-04-29T12:54:14;17.30;88.00
9919;DHT22;4998;51.024;13.828;2023-04-29T12:56:41;17.20;87.80
9919;DHT22;4998;51.024;13.828;2023-04-29T12:59:09;17.10;88.10
9919;DHT22;4998;51.024;13.828;2023-04-29T13:01:37;17.00;88.40
9919;DHT22;4998;51.024;13.828;2023-04-29T13:04:04;17.00;88.80
9919;DHT22;4998;51.024;13.828;2023-04-29T13:06:33;16.90;88.70
9919;DHT22;4998;51.024;13.828;2023-04-29T13:09:05;16.80;88.80
9919;DHT22;4998;51.024;13.828;2023-04-29T13:11:36;16.80;89.30
9919;DHT22;4998;51.024;13.828;2023-04-29T13:14:03;16.80;89.20
9919;DHT22;4998;51.024;13.828;2023-04-29T13:16:31;16.70;89.10
9919;DHT22;4998;51.024;13.828;2023-04-29T13:18:59;16.70;90.00
9919;DHT22;4998;51.024;13.828;2023-04-29T13:21:26;16.70;89.70
9919;DHT22;4998;51.024;13.828;2023-04-29T13:23:53;16.60;89.70
9919;DHT22;4998;51.024;13.828;2023-04-29T13:26:22;16.60;89.70
9919;DHT22;4998;51.024;13.828;2023-04-29T13:28:49;16.60;89.70
9919;DHT22;4998;51.024;13.828;2023-04-29T13:31:17;16.50;89.80
9919;DHT22;4998;51.024;13.828;2023-04-29T13:33:44;16.50;89.90
9919;DHT22;4998;51.024;13.828;2023-04-29T13:36:12;16.40;89.90
9919;DHT22;4998;51.024;13.828;2023-04-29T13:38:39;16.30;90.00
9919;DHT22;4998;51.024;13.828;2023-04-29T13:41:06;16.20;90.20
9919;DHT22;4998;51.024;13.828;2023-04-29T13:43:35;16.20;90.40
9919;DHT22;4998;51.024;13.828;2023-04-29T13:46:02;16.10;90.60
9919;DHT22;4998;51.024;13.828;2023-04-29T13:48:29;16.00;90.50
9919;DHT22;4998;51.024;13.828;2023-04-29T13:50:56;15.90;90.70
9919;DHT22;4998;51.024;13.828;2023-04-29T13:53:23;15.80;90.90
9919;DHT22;4998;51.024;13.828;2023-04-29T13:55:50;15.70;91.10
9919;DHT22;4998;51.024;13.828;2023-04-29T13:58:17;15.60;91.40
9919;DHT22;4998;51.024;13.828;2023-04-29T14:00:46;15.50;91.40
9919;DHT22;4998;51.024;13.828;2023-04-29T14:03:13;15.40;91.70
9919;DHT22;4998;51.024;13.828;2023-04-29T14:05:40;15.30;91.80
9919;DHT22;4998;51.024;13.828;2023-04-29T14:08:07;15.30;92.20
9919;DHT22;4998;51.024;13.828;2023-04-29T14:10:34;15.20;92.30
9919;DHT22;4998;51.024;13.828;2023-04-29T14:13:02;15.10;92.50
9919;DHT22;4998;51.024;13.828;2023-04-29T14:15:29;15.10;92.70
9919;DHT22;4998;51.024;13.828;2023-04-29T14:17:58;15.00;92.90
9919;DHT22;4998;51.024;13.828;2023-04-29T14:20:25;15.00;93.10
9919;DHT22;4998;51.024;13.828;2023-04-29T14:22:52;15.00;93.20
9919;DHT22;4998;51.024;13.828;2023-04-29T14:25:19;14.90;93.20
9919;DHT22;4998;51.024;13.828;2023-04-29T14:27:46;14.90;93.30
9919;DHT22;4998;51.024;13.828;2023-04-29T14:30:13;14.90;93.40
9919;DHT22;4998;51.024;13.828;2023-04-29T14:32:40;14.90;93.60
9919;DHT22;4998;51.024;13.828;2023-04-29T14:35:09;14.90;93.70
9919;DHT22;4998;51.024;13.828;2023-04-29T14:37:36;14.90;93.80
9919;DHT22;4998;51.024;13.828;2023-04-29T14:40:05;14.90;93.70
9919;DHT22;4998;51.024;13.828;2023-04-29T14:42:33;14.90;93.80
9919;DHT22;4998;51.024;13.828;2023-04-29T14:45:01;14.90;93.80
9919;DHT22;4998;51.024;13.828;2023-04-29T14:47:28;14.90;93.90
9919;DHT22;4998;51.024;13.828;2023-04-29T14:49:55;14.90;94.00
9919;DHT22;4998;51.024;13.828;2023-04-29T14:52:23;14.90;94.00
9919;DHT22;4998;51.024;13.828;2023-04-29T14:54:50;14.90;94.10
9919;DHT22;4998;51.024;13.828;2023-04-29T14:57:17;14.90;94.10
9919;DHT22;4998;51.024;13.828;2023-04-29T14:59:44;14.90;94.10
9919;DHT22;4998;51.024;13.828;2023-04-29T15:02:11;15.00;94.20
9919;DHT22;4998;51.024;13.828;2023-04-29T15:04:38;15.00;94.10
9919;DHT22;4998;51.024;13.828;2023-04-29T15:07:10;15.00;94.10
9919;DHT22;4998;51.024;13.828;2023-04-29T15:09:38;15.00;94.10
9919;DHT22;4998;51.024;13.828;2023-04-29T15:12:05;15.00;94.20
9919;DHT22;4998;51.024;13.828;2023-04-29T15:14:32;15.10;94.50
9919;DHT22;4998;51.024;13.828;2023-04-29T15:17:00;15.10;94.10
9919;DHT22;4998;51.024;13.828;2023-04-29T15:19:27;15.10;94.10
9919;DHT22;4998;51.024;13.828;2023-04-29T15:21:54;15.20;94.20
9919;DHT22;4998;51.024;13.828;2023-04-29T15:24:21;15.20;94.10
9919;DHT22;4998;51.024;13.828;2023-04-29T15:26:49;15.20;94.10
9919;DHT22;4998;51.024;13.828;2023-04-29T15:29:16;15.20;94.10
9919;DHT22;4998;51.024;13.828;2023-04-29T15:31:43;15.30;94.10
9919;DHT22;4998;51.024;13.828;2023-04-29T15:34:11;15.30;94.10
9919;DHT22;4998;51.024;13.828;2023-04-29T15:36:38;15.30;94.00
9919;DHT22;4998;51.024;13.828;2023-04-29T15:39:05;15.40;94.00
9919;DHT22;4998;51.024;13.828;2023-04-29T15:41:35;15.40;93.80
9919;DHT22;4998;51.024;13.828;2023-04-29T15:44:04;15.40;93.80
9919;DHT22;4998;51.024;13.828;2023-04-29T15:46:31;15.40;93.70
9919;DHT22;4998;51.024;13.828;2023-04-29T15:48:58;15.50;93.60
9919;DHT22;4998;51.024;13.828;2023-04-29T15:51:25;15.50;93.60